Time;durP1;ratioP1;P1;durP2;ratioP2;P2;SDS_P1;SDS_P2;PMS_P1;PMS_P2;Temp;Humidity;BMP_temperature;BMP_pressure;BME280_temperature;BME280_humidity;BME280_pressure;Samples;Min_cycle;Max_cycle;Signal;HPM_P1;HPM_P2
2021/08/07 00:00:03;;;;;;;6.50;3.70;;;16.30;99.90;;;;;;5095105;28;20258;-69
2021/08/07 00:02:29;;;;;;;3.60;3.27;;;16.40;99.90;;;;;;5094998;28;20631;-69
2021/08/07 00:04:55;;;;;;;3.90;3.60;;;16.30;99.90;;;;;;5094587;28;20433;-69
2021/08/07 00:07:20;;;;;;;5.20;3.70;;;16.30;99.90;;;;;;5094139;28;20207;-68
2021/08/07 00:09:46;;;;;;;3.43;3.13;;;16.30;99.90;;;;;;5094654;28;20408;-68
2021/08/07 00:12:11;;;;;;;2.90;2.60;;;16.20;99.90;;;;;;5094207;28;20233;-69
2021/08/07 00:14:37;;;;;;;3.50;3.20;;;16.20;99.90;;;;;;5094424;28;20177;-69
2021/08/07 00:17:03;;;;;;;4.00;3.70;;;16.20;99.90;;;;;;5094066;28;20170;-70
2021/08/07 00:19:30;;;;;;;3.87;3.20;;;16.20;99.90;;;;;;5094500;28;20213;-68
2021/08/07 00:21:56;;;;;;;3.80;3.50;;;16.10;99.90;;;;;;5093861;28;20214;-69
2021/08/07 00:24:22;;;;;;;4.33;3.50;;;16.00;99.90;;;;;;5094114;28;20412;-69
2021/08/07 00:26:47;;;;;;;3.53;3.23;;;16.00;99.90;;;;;;5094079;28;20474;-69
2021/08/07 00:29:12;;;;;;;6.10;3.50;;;16.00;99.90;;;;;;5094075;28;20165;-69
2021/08/07 00:31:38;;;;;;;5.00;4.60;;;15.90;99.90;;;;;;5094332;28;20208;-69
2021/08/07 00:34:04;;;;;;;4.20;3.80;;;15.90;99.90;;;;;;5094120;28;20236;-68
2021/08/07 00:36:29;;;;;;;3.97;3.67;;;15.90;99.90;;;;;;5093925;28;20267;-69
2021/08/07 00:38:55;;;;;;;4.40;3.80;;;15.80;99.90;;;;;;5093593;28;20227;-69
2021/08/07 00:41:20;;;;;;;3.80;3.50;;;15.80;99.90;;;;;;5093911;28;20269;-69
2021/08/07 00:43:45;;;;;;;5.70;4.43;;;15.80;99.90;;;;;;5093866;28;20178;-68
2021/08/07 00:46:11;;;;;;;4.70;4.30;;;15.80;99.90;;;;;;5093620;28;20221;-68
2021/08/07 00:48:37;;;;;;;4.33;3.50;;;15.80;99.90;;;;;;5092624;28;20173;-69
2021/08/07 00:51:03;;;;;;;3.80;3.47;;;15.70;99.90;;;;;;5093528;28;20231;-69
2021/08/07 00:53:29;;;;;;;4.40;3.87;;;15.70;99.90;;;;;;5094301;28;20407;-69
2021/08/07 00:55:55;;;;;;;4.07;3.67;;;15.70;99.90;;;;;;5093661;28;20403;-69
2021/08/07 00:58:20;;;;;;;4.07;3.67;;;15.70;99.90;;;;;;5093375;28;20403;-69
2021/08/07 01:00:46;;;;;;;3.80;3.50;;;15.70;99.90;;;;;;5093259;28;20189;-69
2021/08/07 01:03:46;;;;;;;4.57;4.20;;;15.60;99.90;;;;;;5093210;28;20174;-68
2021/08/07 01:06:48;;;;;;;4.73;3.87;;;15.60;99.90;;;;;;5093179;28;20202;-68
2021/08/07 01:09:50;;;;;;;4.70;3.60;;;15.60;99.90;;;;;;5093288;28;20413;-69
2021/08/07 01:12:25;;;;;;;6.77;4.70;;;15.60;99.90;;;;;;5093192;28;20443;-70
2021/08/07 01:14:52;;;;;;;4.00;3.70;;;15.50;99.90;;;;;;5093386;28;20395;-69
2021/08/07 01:17:24;;;;;;;4.27;3.87;;;15.50;99.90;;;;;;5092966;28;20794;-69
2021/08/07 01:20:02;;;;;;;5.00;4.20;;;15.50;99.90;;;;;;5093123;28;20408;-68
2021/08/07 01:22:36;;;;;;;4.33;4.00;;;15.50;99.90;;;;;;5092981;28;20439;-69
2021/08/07 01:25:07;;;;;;;4.27;3.77;;;15.50;99.90;;;;;;5092919;28;20404;-68
2021/08/07 01:27:36;;;;;;;6.00;4.13;;;15.50;99.90;;;;;;5092906;28;20454;-68
2021/08/07 01:30:03;;;;;;;4.13;3.73;;;15.40;99.90;;;;;;5092792;28;20503;-69
2021/08/07 01:32:31;;;;;;;4.77;4.03;;;15.50;99.90;;;;;;5092739;28;20457;-68
2021/08/07 01:34:59;;;;;;;4.20;3.80;;;15.50;99.90;;;;;;5092664;28;20491;-69
2021/08/07 01:37:25;;;;;;;4.70;4.30;;;15.50;99.90;;;;;;5092698;28;20486;-68
2021/08/07 01:39:54;;;;;;;4.73;4.37;;;15.50;99.90;;;;;;5092657;28;20404;-68
2021/08/07 01:42:20;;;;;;;4.27;3.97;;;15.50;99.90;;;;;;5092417;28;20801;-69
2021/08/07 01:44:46;;;;;;;3.63;3.33;;;15.50;99.90;;;;;;5090422;28;20453;-67
2021/08/07 01:47:39;;;;;;;5.60;4.30;;;15.40;99.90;;;;;;5090505;28;20455;-68
2021/08/07 01:50:10;;;;;;;6.43;4.33;;;15.50;99.90;;;;;;5092490;28;20162;-68
2021/08/07 01:52:41;;;;;;;4.90;4.50;;;15.60;99.90;;;;;;5092531;28;20403;-68
2021/08/07 01:55:12;;;;;;;4.73;4.33;;;15.60;99.90;;;;;;5092588;28;20414;-69
2021/08/07 01:57:42;;;;;;;4.57;4.17;;;15.60;99.90;;;;;;5092625;28;20415;-69
2021/08/07 02:00:12;;;;;;;4.80;4.37;;;15.60;99.90;;;;;;5092440;28;20503;-69
2021/08/07 02:02:40;;;;;;;5.00;4.60;;;15.60;99.90;;;;;;5092385;28;20416;-69
2021/08/07 02:05:06;;;;;;;4.93;4.43;;;15.60;99.90;;;;;;5092373;28;20400;-68
2021/08/07 02:07:31;;;;;;;4.87;4.23;;;15.60;99.90;;;;;;5091965;28;20501;-69
2021/08/07 02:09:57;;;;;;;4.93;4.43;;;15.50;99.90;;;;;;5092248;28;20461;-68
2021/08/07 02:12:23;;;;;;;4.67;4.27;;;15.50;99.90;;;;;;5092124;28;20221;-68
2021/08/07 02:14:52;;;;;;;4.47;4.07;;;15.50;99.90;;;;;;5090691;28;20439;-68
2021/08/07 02:17:18;;;;;;;6.20;4.40;;;15.40;99.90;;;;;;5092121;28;20221;-69
2021/08/07 02:19:44;;;;;;;4.80;4.30;;;15.40;99.90;;;;;;5092051;28;20445;-68
2021/08/07 02:22:11;;;;;;;4.87;4.37;;;15.40;99.90;;;;;;5092045;28;20435;-68
2021/08/07 02:24:36;;;;;;;4.57;4.17;;;15.40;99.90;;;;;;5092429;28;20498;-69
2021/08/07 02:27:03;;;;;;;6.27;5.07;;;15.40;99.90;;;;;;5092253;28;20528;-70
2021/08/07 02:29:30;;;;;;;5.13;4.63;;;15.50;99.90;;;;;;5092826;28;20257;-69
2021/08/07 02:31:57;;;;;;;5.00;4.50;;;15.50;99.90;;;;;;5092156;28;20424;-69
2021/08/07 02:34:25;;;;;;;4.50;4.10;;;15.40;99.90;;;;;;5092670;28;20471;-69
2021/08/07 02:36:51;;;;;;;5.20;4.70;;;15.50;99.90;;;;;;5092307;28;20396;-67
2021/08/07 02:39:17;;;;;;;5.83;5.23;;;15.40;99.90;;;;;;5092242;28;20416;-69
2021/08/07 02:41:43;;;;;;;6.90;5.00;;;15.40;99.90;;;;;;5091863;28;20740;-69
2021/08/07 02:44:08;;;;;;;7.30;5.23;;;15.50;99.90;;;;;;5092008;28;20711;-68
2021/08/07 02:46:38;;;;;;;5.63;5.00;;;15.50;99.90;;;;;;5092157;28;20194;-69
2021/08/07 02:49:04;;;;;;;7.50;5.33;;;15.50;99.90;;;;;;5091707;28;20234;-69
2021/08/07 02:51:30;;;;;;;5.17;4.33;;;15.40;99.90;;;;;;5091534;28;20420;-69
2021/08/07 02:53:56;;;;;;;4.90;4.50;;;15.40;99.90;;;;;;5091912;28;20197;-69
2021/08/07 02:56:21;;;;;;;6.00;4.67;;;15.40;99.90;;;;;;5091839;28;20407;-69
2021/08/07 02:58:47;;;;;;;5.13;4.57;;;15.30;99.90;;;;;;5091718;28;20174;-69
2021/08/07 03:01:13;;;;;;;6.90;4.87;;;15.30;99.90;;;;;;5091581;28;20194;-69
2021/08/07 03:03:38;;;;;;;8.07;5.07;;;15.30;99.90;;;;;;5091997;28;20265;-68
2021/08/07 03:06:04;;;;;;;4.47;4.07;;;15.40;99.90;;;;;;5091534;28;20214;-68
2021/08/07 03:08:29;;;;;;;5.13;4.67;;;15.40;99.90;;;;;;5092187;28;20166;-68
2021/08/07 03:10:55;;;;;;;4.47;4.07;;;15.30;99.90;;;;;;5091810;28;20604;-68
2021/08/07 03:13:20;;;;;;;6.00;5.40;;;15.20;99.90;;;;;;5095915;28;20257;-68
2021/08/07 03:15:46;;;;;;;5.97;5.47;;;15.30;99.90;;;;;;5095657;28;20165;-68
2021/08/07 03:18:12;;;;;;;5.17;4.67;;;15.30;99.90;;;;;;5095419;28;20577;-69
2021/08/07 03:20:38;;;;;;;6.33;5.13;;;15.30;99.90;;;;;;5095598;28;20238;-69
2021/08/07 03:23:05;;;;;;;7.40;5.47;;;15.20;99.90;;;;;;5095462;28;20223;-69
2021/08/07 03:25:32;;;;;;;5.27;4.77;;;15.30;99.90;;;;;;5095564;28;20404;-69
2021/08/07 03:27:58;;;;;;;5.60;4.63;;;15.20;99.90;;;;;;5095854;28;20907;-69
2021/08/07 03:30:24;;;;;;;5.90;5.10;;;15.20;99.90;;;;;;5095368;28;20424;-69
2021/08/07 03:32:50;;;;;;;6.13;5.20;;;15.20;99.90;;;;;;5095605;28;20451;-68
2021/08/07 03:35:15;;;;;;;6.13;5.53;;;15.30;99.90;;;;;;5095779;28;20435;-68
2021/08/07 03:37:41;;;;;;;6.27;4.50;;;15.30;99.90;;;;;;5095438;28;20463;-68
2021/08/07 03:40:07;;;;;;;5.93;5.33;;;15.20;99.90;;;;;;5095219;28;20519;-68
2021/08/07 03:42:33;;;;;;;6.20;5.50;;;15.20;99.90;;;;;;5095684;28;20253;-68
2021/08/07 03:44:58;;;;;;;6.57;5.90;;;15.20;99.90;;;;;;5094417;28;20463;-69
2021/08/07 03:47:24;;;;;;;6.30;5.37;;;15.20;99.90;;;;;;5095242;28;20198;-69
2021/08/07 03:49:49;;;;;;;6.30;5.70;;;15.20;99.90;;;;;;5095301;28;20169;-69
2021/08/07 03:52:15;;;;;;;5.03;4.63;;;15.30;99.90;;;;;;5094831;28;20197;-68
2021/08/07 03:54:40;;;;;;;6.27;5.67;;;15.30;99.90;;;;;;5095080;28;20170;-68
2021/08/07 03:57:06;;;;;;;5.53;5.03;;;15.20;99.90;;;;;;5094897;28;20170;-68
2021/08/07 03:59:32;;;;;;;5.63;5.20;;;15.30;99.90;;;;;;5093882;28;20177;-68
2021/08/07 04:01:57;;;;;;;6.63;4.90;;;15.30;99.90;;;;;;5094444;28;20190;-69
2021/08/07 04:04:23;;;;;;;5.90;5.40;;;15.30;99.90;;;;;;5093553;28;20399;-68
2021/08/07 04:06:48;;;;;;;6.20;5.60;;;15.40;99.90;;;;;;5094604;28;20638;-69
2021/08/07 04:09:14;;;;;;;5.43;4.73;;;15.40;99.90;;;;;;5094752;28;20166;-70
2021/08/07 04:11:39;;;;;;;5.73;5.17;;;15.40;99.90;;;;;;5095033;28;20190;-70
2021/08/07 04:14:05;;;;;;;6.13;5.60;;;15.40;99.90;;;;;;5094992;28;20171;-69
2021/08/07 04:16:32;;;;;;;8.00;7.17;;;15.40;99.90;;;;;;5094675;28;20280;-70
2021/08/07 04:18:57;;;;;;;8.80;7.90;;;15.40;99.90;;;;;;5094147;28;20412;-70
2021/08/07 04:21:23;;;;;;;10.87;8.50;;;15.40;99.90;;;;;;5094437;28;20507;-70
2021/08/07 04:23:48;;;;;;;8.23;7.00;;;15.50;99.90;;;;;;5096034;28;20182;-70
2021/08/07 04:26:13;;;;;;;7.73;6.90;;;15.60;99.90;;;;;;5095542;28;20224;-70
2021/08/07 04:28:39;;;;;;;6.30;5.67;;;15.60;99.90;;;;;;5095430;28;20632;-70
2021/08/07 04:31:06;;;;;;;6.63;5.60;;;15.60;99.90;;;;;;5094719;28;20233;-70
2021/08/07 04:33:33;;;;;;;6.53;5.93;;;15.70;99.90;;;;;;5094749;28;20640;-70
2021/08/07 04:36:04;;;;;;;5.70;5.20;;;15.70;99.90;;;;;;5095528;28;20423;-70
2021/08/07 04:38:31;;;;;;;6.10;5.30;;;15.90;99.90;;;;;;5095072;28;20407;-70
2021/08/07 04:40:57;;;;;;;8.60;6.53;;;15.90;99.90;;;;;;5094977;28;20452;-69
2021/08/07 04:43:22;;;;;;;6.07;4.83;;;16.00;99.90;;;;;;5094654;28;20797;-69
2021/08/07 04:45:48;;;;;;;6.40;5.60;;;16.00;99.90;;;;;;5093933;28;20854;-69
2021/08/07 04:48:14;;;;;;;6.27;5.77;;;16.00;99.90;;;;;;5093555;28;20171;-69
2021/08/07 04:50:40;;;;;;;8.00;5.90;;;16.10;99.90;;;;;;5093738;28;20245;-69
2021/08/07 04:53:06;;;;;;;5.63;5.00;;;16.10;99.90;;;;;;5093689;28;20406;-69
2021/08/07 04:55:33;;;;;;;6.90;5.20;;;16.20;99.90;;;;;;5093562;28;20194;-69
2021/08/07 04:57:59;;;;;;;5.13;4.60;;;16.20;99.90;;;;;;5093552;28;20408;-69
2021/08/07 05:00:24;;;;;;;6.27;4.97;;;16.30;99.90;;;;;;5093451;28;20972;-69
2021/08/07 05:02:50;;;;;;;5.47;4.57;;;16.30;99.90;;;;;;5093281;28;20189;-69
2021/08/07 05:05:17;;;;;;;5.60;4.97;;;16.40;99.90;;;;;;5093482;28;20212;-69
2021/08/07 05:07:43;;;;;;;5.63;5.13;;;16.40;99.90;;;;;;5093178;28;20209;-69
2021/08/07 05:10:11;;;;;;;5.83;5.33;;;16.50;99.90;;;;;;5093499;28;20466;-69
2021/08/07 05:12:36;;;;;;;5.40;4.90;;;16.50;99.90;;;;;;5093236;28;20406;-69
2021/08/07 05:15:04;;;;;;;4.37;4.07;;;16.60;99.90;;;;;;5093328;28;20751;-69
2021/08/07 05:17:29;;;;;;;8.47;5.20;;;16.70;99.90;;;;;;5092809;28;20171;-69
2021/08/07 05:19:55;;;;;;;5.63;5.10;;;16.80;99.90;;;;;;5093449;28;20409;-69
2021/08/07 05:22:22;;;;;;;4.33;3.93;;;16.90;99.90;;;;;;5093048;28;20491;-69
2021/08/07 05:24:47;;;;;;;6.20;4.70;;;17.30;99.90;;;;;;5093150;28;20184;-70
2021/08/07 05:27:13;;;;;;;3.87;3.47;;;18.20;99.90;;;;;;5092743;28;20962;-69
2021/08/07 05:29:39;;;;;;;2.90;2.60;;;18.50;99.90;;;;;;5093024;28;20614;-69
2021/08/07 05:32:04;;;;;;;4.37;3.10;;;18.40;99.90;;;;;;5092459;28;20191;-69
2021/08/07 05:34:30;;;;;;;4.20;2.60;;;19.10;99.90;;;;;;5092266;28;20169;-69
2021/08/07 05:36:55;;;;;;;4.13;3.23;;;19.60;99.90;;;;;;5092922;28;20641;-69
2021/08/07 05:39:21;;;;;;;3.33;2.93;;;19.90;99.90;;;;;;5092921;28;20169;-69
2021/08/07 05:41:46;;;;;;;3.00;2.70;;;20.50;99.90;;;;;;5092686;28;20274;-69
2021/08/07 05:44:12;;;;;;;4.80;3.40;;;20.30;99.90;;;;;;5092765;28;20173;-69
2021/08/07 05:46:37;;;;;;;2.73;2.50;;;20.80;99.90;;;;;;5092323;28;20291;-69
2021/08/07 05:49:03;;;;;;;4.13;2.43;;;20.70;99.90;;;;;;5092638;28;20172;-69
2021/08/07 05:51:30;;;;;;;3.53;2.80;;;20.80;99.90;;;;;;5092524;28;20201;-69
2021/08/07 05:53:55;;;;;;;3.20;2.40;;;21.20;99.90;;;;;;5092535;28;20692;-69
2021/08/07 05:56:20;;;;;;;6.63;3.00;;;21.00;99.90;;;;;;5092322;28;20408;-69
2021/08/07 05:58:46;;;;;;;3.40;2.80;;;21.10;99.90;;;;;;5092454;28;20180;-69
2021/08/07 06:01:12;;;;;;;2.60;2.13;;;21.80;99.90;;;;;;5092058;28;20229;-69
2021/08/07 06:03:37;;;;;;;6.07;2.87;;;22.20;99.90;;;;;;5092571;28;20203;-69
2021/08/07 06:06:03;;;;;;;2.77;2.10;;;21.90;99.90;;;;;;5092347;28;20206;-69
2021/08/07 06:08:29;;;;;;;2.90;2.17;;;21.70;99.90;;;;;;5092238;28;20590;-69
2021/08/07 06:10:56;;;;;;;2.83;2.03;;;21.70;99.90;;;;;;5092290;28;20191;-69
2021/08/07 06:13:22;;;;;;;3.10;2.57;;;22.20;99.90;;;;;;5092823;28;20440;-68
2021/08/07 06:15:47;;;;;;;2.97;2.30;;;22.00;99.90;;;;;;5092235;28;20413;-69
2021/08/07 06:18:13;;;;;;;2.70;2.50;;;21.70;99.90;;;;;;5092003;28;20900;-69
2021/08/07 06:20:38;;;;;;;2.53;2.00;;;22.90;99.90;;;;;;5092206;28;20182;-69
2021/08/07 06:23:04;;;;;;;1.87;1.77;;;22.80;99.90;;;;;;5092105;28;20616;-69
2021/08/07 06:25:29;;;;;;;6.23;2.00;;;22.50;99.90;;;;;;5091850;28;20169;-69
2021/08/07 06:27:56;;;;;;;4.20;2.13;;;23.00;99.90;;;;;;5092077;28;20169;-66
2021/08/07 06:30:22;;;;;;;3.50;2.67;;;24.20;99.90;;;;;;5091706;28;20197;-69
2021/08/07 06:32:47;;;;;;;5.10;2.33;;;23.40;99.90;;;;;;5091991;28;20411;-67
2021/08/07 06:35:13;;;;;;;3.73;2.47;;;23.40;99.90;;;;;;5091954;28;20399;-68
2021/08/07 06:37:39;;;;;;;2.50;1.87;;;23.70;99.90;;;;;;5091962;28;20169;-69
2021/08/07 06:40:05;;;;;;;4.40;1.97;;;24.00;99.90;;;;;;5091990;28;20172;-68
2021/08/07 06:42:31;;;;;;;2.37;2.17;;;23.70;99.90;;;;;;5091886;28;20169;-68
2021/08/07 06:44:56;;;;;;;3.67;2.00;;;23.80;99.90;;;;;;5091888;28;20742;-68
2021/08/07 06:47:22;;;;;;;2.77;2.40;;;24.20;99.90;;;;;;5090774;28;20203;-68
2021/08/07 06:49:47;;;;;;;3.20;2.40;;;23.80;99.90;;;;;;5091982;28;20225;-68
2021/08/07 06:52:13;;;;;;;4.57;2.30;;;24.40;99.90;;;;;;5091598;28;20196;-68
2021/08/07 06:54:38;;;;;;;2.67;2.47;;;24.40;99.90;;;;;;5091772;28;20209;-68
2021/08/07 06:57:04;;;;;;;2.60;2.40;;;25.20;99.90;;;;;;5091554;28;20180;-68
2021/08/07 06:59:29;;;;;;;2.33;2.13;;;24.80;99.90;;;;;;5091494;28;20169;-68
2021/08/07 07:01:55;;;;;;;4.17;2.73;;;25.00;99.90;;;;;;5091803;28;20189;-68
2021/08/07 07:04:20;;;;;;;1.93;1.80;;;24.50;99.90;;;;;;5091941;28;20651;-68
2021/08/07 07:06:46;;;;;;;2.20;2.00;;;23.90;99.90;;;;;;5091478;28;20204;-67
2021/08/07 07:09:11;;;;;;;3.17;2.00;;;23.90;99.90;;;;;;5091631;28;20168;-67
2021/08/07 07:11:37;;;;;;;2.17;2.00;;;24.40;99.90;;;;;;5091502;28;20220;-67
2021/08/07 07:14:03;;;;;;;4.00;1.80;;;24.90;99.90;;;;;;5091303;28;20191;-67
2021/08/07 07:16:30;;;;;;;1.90;1.77;;;25.60;99.90;;;;;;5091787;28;20588;-67
2021/08/07 07:18:56;;;;;;;2.60;1.97;;;25.20;99.90;;;;;;5091012;28;20406;-67
2021/08/07 07:21:21;;;;;;;1.77;1.67;;;25.20;99.90;;;;;;5091572;28;20925;-66
2021/08/07 07:23:47;;;;;;;5.37;2.27;;;25.50;99.90;;;;;;5091538;28;20170;-68
2021/08/07 07:26:12;;;;;;;2.30;1.57;;;26.20;99.90;;;;;;5091267;28;20223;-67
2021/08/07 07:28:37;;;;;;;2.87;1.97;;;25.50;99.90;;;;;;5091284;28;20166;-67
2021/08/07 07:31:03;;;;;;;2.30;1.80;;;25.30;99.90;;;;;;5091335;28;20270;-67
2021/08/07 07:33:28;;;;;;;3.60;2.17;;;25.20;99.90;;;;;;5091358;28;20158;-67
2021/08/07 07:35:54;;;;;;;3.03;2.40;;;25.50;99.90;;;;;;5091360;28;20179;-67
2021/08/07 07:38:19;;;;;;;1.90;1.70;;;25.30;99.90;;;;;;5091340;28;20170;-68
2021/08/07 07:40:45;;;;;;;3.50;2.10;;;26.30;99.90;;;;;;5091333;28;20315;-67
2021/08/07 07:43:11;;;;;;;3.00;1.90;;;25.60;99.90;;;;;;5090984;28;20158;-67
2021/08/07 07:45:36;;;;;;;2.80;2.27;;;25.60;99.90;;;;;;5091311;28;20655;-67
2021/08/07 07:48:02;;;;;;;2.10;1.90;;;26.80;99.90;;;;;;5091389;28;20526;-67
2021/08/07 07:50:27;;;;;;;4.63;2.67;;;25.30;99.90;;;;;;5091199;28;20185;-67
2021/08/07 07:52:53;;;;;;;3.23;1.80;;;25.70;99.90;;;;;;5091245;28;20166;-67
2021/08/07 07:55:18;;;;;;;2.60;2.13;;;25.90;99.90;;;;;;5091105;28;20176;-68
2021/08/07 07:57:44;;;;;;;2.53;2.13;;;25.50;99.90;;;;;;5092222;28;20693;-68
2021/08/07 08:00:10;;;;;;;2.47;1.80;;;25.70;99.90;;;;;;5094694;28;20170;-66
2021/08/07 08:02:35;;;;;;;3.10;1.80;;;26.70;99.90;;;;;;5094967;28;20203;-67
2021/08/07 08:05:00;;;;;;;2.80;1.70;;;26.30;99.90;;;;;;5094762;28;20486;-67
2021/08/07 08:07:26;;;;;;;3.17;2.10;;;26.30;99.90;;;;;;5094275;28;20213;-68
2021/08/07 08:09:51;;;;;;;4.00;2.00;;;26.30;99.90;;;;;;5094587;28;20238;-67
2021/08/07 08:12:17;;;;;;;2.17;1.80;;;26.50;99.90;;;;;;5094309;28;20660;-67
2021/08/07 08:14:42;;;;;;;2.60;1.80;;;25.30;99.90;;;;;;5094593;28;20183;-67
2021/08/07 08:17:08;;;;;;;2.50;1.77;;;25.60;99.90;;;;;;5094232;28;20169;-67
2021/08/07 08:19:33;;;;;;;1.67;1.57;;;26.70;99.90;;;;;;5094537;28;20283;-67
2021/08/07 08:21:59;;;;;;;2.83;1.90;;;26.10;99.90;;;;;;5094024;28;20683;-69
2021/08/07 08:24:25;;;;;;;2.73;1.93;;;26.70;99.90;;;;;;5094171;28;20173;-69
2021/08/07 08:26:50;;;;;;;2.03;1.83;;;28.20;99.90;;;;;;5093864;28;20247;-67
2021/08/07 08:29:16;;;;;;;2.20;1.83;;;26.70;99.90;;;;;;5094161;28;20506;-67
2021/08/07 08:31:41;;;;;;;2.00;1.50;;;26.10;99.90;;;;;;5093966;28;20195;-67
2021/08/07 08:34:07;;;;;;;4.00;1.63;;;26.10;99.90;;;;;;5094207;28;20173;-68
2021/08/07 08:36:32;;;;;;;1.80;1.70;;;26.60;99.90;;;;;;5094234;28;20184;-66
2021/08/07 08:39:04;;;;;;;2.00;1.80;;;25.90;99.90;;;;;;5094011;28;20180;-69
2021/08/07 08:41:34;;;;;;;2.03;1.87;;;25.40;99.90;;;;;;5093753;28;20603;-68
2021/08/07 08:44:00;;;;;;;2.50;2.07;;;25.60;99.90;;;;;;5094114;28;20408;-69
2021/08/07 08:46:25;;;;;;;1.67;1.50;;;25.60;99.90;;;;;;5093951;28;20462;-67
2021/08/07 08:48:51;;;;;;;2.27;1.87;;;25.20;99.90;;;;;;5093923;28;20172;-68
2021/08/07 08:51:25;;;;;;;1.43;1.33;;;25.00;99.90;;;;;;5093801;28;20189;-67
2021/08/07 08:53:51;;;;;;;2.27;1.90;;;24.80;99.90;;;;;;5093713;28;20169;-68
2021/08/07 08:56:17;;;;;;;1.80;1.50;;;24.90;99.90;;;;;;5093428;28;20416;-68
2021/08/07 08:58:42;;;;;;;1.80;1.70;;;24.60;99.90;;;;;;5093512;28;20411;-67
2021/08/07 09:01:09;;;;;;;3.40;1.90;;;24.70;99.90;;;;;;5093630;28;20288;-68
2021/08/07 09:03:34;;;;;;;2.40;1.97;;;25.40;99.90;;;;;;5093552;28;20177;-69
2021/08/07 09:06:00;;;;;;;4.27;3.97;;;24.80;99.90;;;;;;5093420;28;20454;-69
2021/08/07 09:08:26;;;;;;;2.10;1.90;;;24.50;99.90;;;;;;5093619;28;20174;-67
2021/08/07 09:11:17;;;;;;;2.30;1.77;;;24.50;99.90;;;;;;5092783;28;20197;-68
2021/08/07 09:13:43;;;;;;;2.80;1.50;;;23.90;99.90;;;;;;5093413;28;20238;-69
2021/08/07 09:16:10;;;;;;;2.97;1.80;;;23.60;99.90;;;;;;5093442;28;20411;-68
2021/08/07 09:18:36;;;;;;;1.80;1.70;;;24.20;99.90;;;;;;5093472;28;20170;-68
2021/08/07 09:21:16;;;;;;;2.00;1.40;;;23.80;99.90;;;;;;5093102;28;20512;-68
2021/08/07 09:23:42;;;;;;;2.13;1.97;;;23.40;99.90;;;;;;5093175;28;20767;-68
2021/08/07 09:26:22;;;;;;;2.90;1.70;;;23.70;99.90;;;;;;5093412;28;20445;-69
2021/08/07 09:28:55;;;;;;;1.80;1.70;;;24.10;99.90;;;;;;5093161;28;20172;-68
2021/08/07 09:31:23;;;;;;;2.80;1.77;;;24.00;99.90;;;;;;5093049;28;20446;-68
2021/08/07 09:34:16;;;;;;;1.83;1.63;;;24.10;99.90;;;;;;5093143;28;20410;-68
2021/08/07 09:36:49;;;;;;;1.90;1.70;;;24.70;99.90;;;;;;5092946;28;20425;-68
2021/08/07 09:39:15;;;;;;;2.50;1.77;;;24.10;99.90;;;;;;5093079;28;20418;-67
2021/08/07 09:42:00;;;;;;;1.93;1.70;;;24.00;99.90;;;;;;5093163;28;20932;-68
2021/08/07 09:44:26;;;;;;;2.63;1.73;;;24.00;99.90;;;;;;5093402;28;20398;-68
2021/08/07 09:47:03;;;;;;;2.77;1.80;;;23.60;99.90;;;;;;5093387;28;20476;-68
2021/08/07 09:49:37;;;;;;;2.43;2.23;;;23.80;99.90;;;;;;5092839;28;20491;-69
2021/08/07 09:52:03;;;;;;;2.40;1.30;;;24.20;99.90;;;;;;5092920;28;20422;-67
2021/08/07 09:54:44;;;;;;;2.17;1.63;;;24.20;99.90;;;;;;5092457;28;20421;-68
2021/08/07 09:57:22;;;;;;;4.77;1.90;;;24.00;99.90;;;;;;5092658;28;20407;-68
2021/08/07 09:59:49;;;;;;;2.40;1.73;;;23.70;99.90;;;;;;5093031;28;20559;-67
2021/08/07 10:02:24;;;;;;;1.83;1.70;;;23.80;99.90;;;;;;5092141;28;20793;-67
2021/08/07 10:04:50;;;;;;;1.63;1.53;;;24.10;99.90;;;;;;5092301;28;20412;-68
2021/08/07 10:07:39;;;;;;;2.03;1.50;;;24.60;99.90;;;;;;5092293;28;20461;-68
2021/08/07 10:10:21;;;;;;;1.60;1.47;;;24.30;99.90;;;;;;5090258;28;20190;-69
2021/08/07 10:12:48;;;;;;;2.00;1.77;;;24.80;99.90;;;;;;5092301;28;20838;-68
2021/08/07 10:15:16;;;;;;;2.87;1.33;;;24.70;99.90;;;;;;5092207;28;20413;-68
2021/08/07 10:17:45;;;;;;;2.27;1.57;;;25.00;99.90;;;;;;5092205;28;20184;-68
2021/08/07 10:20:12;;;;;;;1.50;1.40;;;25.10;99.90;;;;;;5092048;28;20453;-68
2021/08/07 10:22:40;;;;;;;1.50;1.40;;;24.60;99.90;;;;;;5092075;28;20410;-67
2021/08/07 10:25:09;;;;;;;2.77;1.40;;;24.60;99.90;;;;;;5092152;28;20464;-68
2021/08/07 10:27:36;;;;;;;2.03;1.83;;;24.30;99.90;;;;;;5091826;28;21041;-66
2021/08/07 10:30:06;;;;;;;2.60;1.70;;;24.40;99.90;;;;;;5083527;28;20433;-67
2021/08/07 10:32:34;;;;;;;1.60;1.50;;;24.40;99.90;;;;;;5092021;28;20466;-67
2021/08/07 10:35:01;;;;;;;2.70;1.40;;;24.40;99.90;;;;;;5090683;28;20899;-67
2021/08/07 10:37:27;;;;;;;1.47;1.20;;;24.60;99.90;;;;;;5091468;28;20408;-67
2021/08/07 10:39:52;;;;;;;1.70;1.60;;;24.40;99.90;;;;;;5092053;28;20438;-66
2021/08/07 10:42:19;;;;;;;2.00;1.37;;;24.20;99.90;;;;;;5091889;28;20193;-66
2021/08/07 10:44:47;;;;;;;1.83;1.47;;;24.60;99.90;;;;;;5091851;28;20802;-67
2021/08/07 10:47:12;;;;;;;1.90;1.40;;;24.60;99.90;;;;;;5091958;28;20455;-68
2021/08/07 10:49:45;;;;;;;3.20;2.90;;;24.30;99.90;;;;;;5092025;28;20406;-68
2021/08/07 10:52:22;;;;;;;2.07;1.70;;;24.30;99.90;;;;;;5091906;28;20428;-68
2021/08/07 10:54:54;;;;;;;1.90;1.80;;;24.40;99.90;;;;;;5091915;28;20417;-67
2021/08/07 10:57:35;;;;;;;3.00;1.47;;;24.50;99.90;;;;;;5091624;28;20787;-68
2021/08/07 11:00:21;;;;;;;1.40;1.30;;;24.60;99.90;;;;;;5091760;28;20735;-68
2021/08/07 11:02:47;;;;;;;2.33;1.90;;;24.70;99.90;;;;;;5091388;28;20412;-68
2021/08/07 11:05:14;;;;;;;1.97;1.80;;;24.70;99.90;;;;;;5091543;28;21063;-68
2021/08/07 11:07:40;;;;;;;1.60;1.50;;;24.90;99.90;;;;;;5092026;28;20488;-68
2021/08/07 11:10:11;;;;;;;2.70;1.90;;;24.90;99.90;;;;;;5091952;28;20905;-67
2021/08/07 11:12:45;;;;;;;1.40;1.30;;;25.00;99.90;;;;;;5091968;28;20913;-68
2021/08/07 11:15:31;;;;;;;1.80;1.30;;;24.90;99.90;;;;;;5091803;28;20396;-68
2021/08/07 11:17:56;;;;;;;1.50;1.40;;;25.20;99.90;;;;;;5091406;28;20446;-68
2021/08/07 11:20:42;;;;;;;1.77;1.33;;;25.00;99.90;;;;;;5092074;28;20897;-67
2021/08/07 11:23:09;;;;;;;2.37;1.40;;;25.00;99.90;;;;;;5091742;28;20172;-67
2021/08/07 11:25:49;;;;;;;1.57;1.27;;;25.20;99.90;;;;;;5091377;28;20409;-67
2021/08/07 11:28:16;;;;;;;1.43;1.20;;;25.30;99.90;;;;;;5091403;28;20418;-68
2021/08/07 11:30:42;;;;;;;1.20;1.10;;;25.50;99.90;;;;;;5091623;28;20428;-68
2021/08/07 11:33:08;;;;;;;2.10;1.73;;;25.30;99.90;;;;;;5093480;28;20394;-68
2021/08/07 11:35:33;;;;;;;1.60;1.50;;;25.20;99.90;;;;;;5095776;28;20518;-68
2021/08/07 11:38:18;;;;;;;1.33;1.20;;;24.90;99.90;;;;;;5095542;28;20175;-68
2021/08/07 11:40:44;;;;;;;2.13;1.33;;;24.50;99.90;;;;;;5095039;28;20193;-67
2021/08/07 11:43:17;;;;;;;1.50;1.40;;;24.80;99.90;;;;;;5095444;28;20475;-68
2021/08/07 11:45:43;;;;;;;1.40;1.30;;;24.90;99.90;;;;;;5095132;28;20594;-68
2021/08/07 11:48:09;;;;;;;2.30;1.90;;;25.10;99.90;;;;;;5095050;28;20442;-68
2021/08/07 11:50:41;;;;;;;2.53;1.83;;;25.30;99.90;;;;;;5095115;28;20186;-68
2021/08/07 11:53:16;;;;;;;2.00;1.30;;;25.30;99.90;;;;;;5094876;28;20266;-68
2021/08/07 11:55:42;;;;;;;1.53;1.43;;;25.00;99.90;;;;;;5095372;28;20458;-68
2021/08/07 11:58:10;;;;;;;1.20;1.10;;;25.30;99.90;;;;;;5094861;28;20451;-69
2021/08/07 12:00:37;;;;;;;1.60;1.50;;;25.30;99.90;;;;;;5095203;28;20486;-69
2021/08/07 12:03:05;;;;;;;1.73;1.20;;;25.10;99.90;;;;;;5094847;28;20475;-68
2021/08/07 12:05:33;;;;;;;1.50;1.23;;;25.10;99.90;;;;;;5094857;28;20442;-68
2021/08/07 12:08:10;;;;;;;3.40;1.37;;;25.20;99.90;;;;;;5094429;28;20467;-67
2021/08/07 12:10:47;;;;;;;1.00;0.90;;;25.20;99.90;;;;;;5094711;28;20518;-67
2021/08/07 12:13:17;;;;;;;1.57;1.23;;;25.40;99.90;;;;;;5094881;28;20949;-67
2021/08/07 12:15:54;;;;;;;3.37;1.77;;;25.20;99.90;;;;;;5094603;28;20433;-67
2021/08/07 12:18:19;;;;;;;1.33;1.00;;;25.10;99.90;;;;;;5094226;28;20403;-68
2021/08/07 12:20:45;;;;;;;1.30;1.20;;;25.10;99.90;;;;;;5094410;28;20476;-67
2021/08/07 12:23:12;;;;;;;1.30;1.07;;;25.70;99.90;;;;;;5094418;28;20240;-68
2021/08/07 12:25:38;;;;;;;1.70;1.43;;;25.90;99.90;;;;;;5094606;28;20791;-68
2021/08/07 12:28:07;;;;;;;1.17;1.07;;;25.80;99.90;;;;;;5094245;28;20457;-67
2021/08/07 12:30:34;;;;;;;1.23;1.13;;;25.70;99.90;;;;;;5094148;28;20424;-68
2021/08/07 12:33:20;;;;;;;4.20;1.93;;;25.70;99.90;;;;;;5093283;28;20408;-68
2021/08/07 12:35:46;;;;;;;1.87;1.73;;;25.40;99.90;;;;;;5094501;28;20403;-68
2021/08/07 12:38:13;;;;;;;1.40;1.20;;;25.40;99.90;;;;;;5094097;28;20398;-67
2021/08/07 12:40:41;;;;;;;1.97;1.20;;;25.40;99.90;;;;;;5094230;28;20529;-68
2021/08/07 12:43:06;;;;;;;1.83;1.53;;;25.20;99.90;;;;;;5093597;28;20409;-67
2021/08/07 12:45:32;;;;;;;3.13;1.40;;;25.10;99.90;;;;;;5093089;28;20415;-67
2021/08/07 12:47:58;;;;;;;1.20;1.00;;;25.10;99.90;;;;;;5094216;28;20298;-68
2021/08/07 12:50:25;;;;;;;5.27;1.30;;;25.10;99.90;;;;;;5094143;28;20192;-67